sensor_id;sensor_type;location;lat;lon;timestamp;P1;durP1;ratioP1;P2;durP2;ratioP2
20365;SDS011;10341;49.894;8.822;2024-01-06T00:04:33;4.40;;;1.75;;
20365;SDS011;10341;49.894;8.822;2024-01-06T00:09:53;3.45;;;1.70;;
20365;SDS011;10341;49.894;8.822;2024-01-06T00:15:12;4.82;;;2.00;;
20365;SDS011;10341;49.894;8.822;2024-01-06T00:20:32;3.92;;;1.50;;
20365;SDS011;10341;49.894;8.822;2024-01-06T00:25:51;4.10;;;1.73;;
20365;SDS011;10341;49.894;8.822;2024-01-06T00:31:10;4.93;;;2.20;;
20365;SDS011;10341;49.894;8.822;2024-01-06T00:36:30;2.65;;;1.50;;
20365;SDS011;10341;49.894;8.822;2024-01-06T00:41:49;2.35;;;1.30;;
20365;SDS011;10341;49.894;8.822;2024-01-06T00:47:09;2.90;;;1.55;;
20365;SDS011;10341;49.894;8.822;2024-01-06T00:52:28;1.92;;;1.40;;
20365;SDS011;10341;49.894;8.822;2024-01-06T00:57:48;3.63;;;1.48;;
20365;SDS011;10341;49.894;8.822;2024-01-06T01:03:08;4.03;;;1.60;;
20365;SDS011;10341;49.894;8.822;2024-01-06T01:08:27;2.83;;;1.52;;
20365;SDS011;10341;49.894;8.822;2024-01-06T01:13:47;4.32;;;1.50;;
20365;SDS011;10341;49.894;8.822;2024-01-06T01:19:06;5.47;;;1.70;;
20365;SDS011;10341;49.894;8.822;2024-01-06T01:24:26;3.20;;;1.50;;
20365;SDS011;10341;49.894;8.822;2024-01-06T01:29:45;3.35;;;1.50;;
20365;SDS011;10341;49.894;8.822;2024-01-06T01:35:06;5.72;;;2.03;;
20365;SDS011;10341;49.894;8.822;2024-01-06T01:40:25;8.30;;;2.38;;
20365;SDS011;10341;49.894;8.822;2024-01-06T01:45:45;9.30;;;2.47;;
20365;SDS011;10341;49.894;8.822;2024-01-06T01:51:09;4.18;;;1.58;;
20365;SDS011;10341;49.894;8.822;2024-01-06T01:56:30;7.28;;;2.15;;
20365;SDS011;10341;49.894;8.822;2024-01-06T02:01:52;5.40;;;2.05;;
20365;SDS011;10341;49.894;8.822;2024-01-06T02:07:11;4.43;;;1.70;;
20365;SDS011;10341;49.894;8.822;2024-01-06T02:12:31;5.90;;;2.05;;
20365;SDS011;10341;49.894;8.822;2024-01-06T02:17:50;5.85;;;1.80;;
20365;SDS011;10341;49.894;8.822;2024-01-06T02:23:09;5.00;;;1.80;;
20365;SDS011;10341;49.894;8.822;2024-01-06T02:33:48;5.68;;;1.85;;
20365;SDS011;10341;49.894;8.822;2024-01-06T02:39:07;3.95;;;1.70;;
20365;SDS011;10341;49.894;8.822;2024-01-06T02:49:46;5.15;;;1.58;;
20365;SDS011;10341;49.894;8.822;2024-01-06T03:00:25;3.17;;;1.73;;
20365;SDS011;10341;49.894;8.822;2024-01-06T03:05:44;3.03;;;1.57;;
20365;SDS011;10341;49.894;8.822;2024-01-06T03:11:07;3.50;;;1.55;;
20365;SDS011;10341;49.894;8.822;2024-01-06T03:16:27;3.72;;;1.48;;
20365;SDS011;10341;49.894;8.822;2024-01-06T03:21:46;2.90;;;1.47;;
20365;SDS011;10341;49.894;8.822;2024-01-06T03:27:05;5.40;;;1.40;;
20365;SDS011;10341;49.894;8.822;2024-01-06T03:32:24;2.80;;;1.20;;
20365;SDS011;10341;49.894;8.822;2024-01-06T03:43:03;2.83;;;1.40;;
20365;SDS011;10341;49.894;8.822;2024-01-06T03:48:23;6.05;;;1.73;;
20365;SDS011;10341;49.894;8.822;2024-01-06T03:53:42;3.10;;;1.40;;
20365;SDS011;10341;49.894;8.822;2024-01-06T03:59:01;3.30;;;1.47;;
20365;SDS011;10341;49.894;8.822;2024-01-06T04:04:21;3.30;;;1.20;;
20365;SDS011;10341;49.894;8.822;2024-01-06T04:09:44;2.78;;;1.17;;
20365;SDS011;10341;49.894;8.822;2024-01-06T04:15:03;4.13;;;1.70;;
20365;SDS011;10341;49.894;8.822;2024-01-06T04:20:23;8.00;;;1.60;;
20365;SDS011;10341;49.894;8.822;2024-01-06T04:25:42;6.30;;;2.03;;
20365;SDS011;10341;49.894;8.822;2024-01-06T04:31:01;3.80;;;1.70;;
20365;SDS011;10341;49.894;8.822;2024-01-06T04:36:20;4.32;;;1.80;;
20365;SDS011;10341;49.894;8.822;2024-01-06T04:41:40;2.97;;;1.60;;
20365;SDS011;10341;49.894;8.822;2024-01-06T04:47:00;6.10;;;1.70;;
20365;SDS011;10341;49.894;8.822;2024-01-06T04:52:20;4.47;;;1.50;;
20365;SDS011;10341;49.894;8.822;2024-01-06T04:57:39;2.25;;;1.48;;
20365;SDS011;10341;49.894;8.822;2024-01-06T05:02:59;3.60;;;1.60;;
20365;SDS011;10341;49.894;8.822;2024-01-06T05:08:18;3.83;;;1.20;;
20365;SDS011;10341;49.894;8.822;2024-01-06T05:13:39;4.03;;;1.63;;
20365;SDS011;10341;49.894;8.822;2024-01-06T05:18:58;4.40;;;1.97;;
20365;SDS011;10341;49.894;8.822;2024-01-06T05:24:17;3.60;;;2.15;;
20365;SDS011;10341;49.894;8.822;2024-01-06T05:29:38;4.03;;;1.90;;
20365;SDS011;10341;49.894;8.822;2024-01-06T05:34:57;4.57;;;2.00;;
20365;SDS011;10341;49.894;8.822;2024-01-06T05:40:17;3.40;;;2.00;;
20365;SDS011;10341;49.894;8.822;2024-01-06T05:45:36;3.70;;;2.30;;
20365;SDS011;10341;49.894;8.822;2024-01-06T05:50:56;6.55;;;1.88;;
20365;SDS011;10341;49.894;8.822;2024-01-06T05:56:22;4.68;;;1.90;;
20365;SDS011;10341;49.894;8.822;2024-01-06T06:01:44;4.38;;;2.10;;
20365;SDS011;10341;49.894;8.822;2024-01-06T06:07:03;5.18;;;2.67;;
20365;SDS011;10341;49.894;8.822;2024-01-06T06:17:42;3.38;;;2.08;;
20365;SDS011;10341;49.894;8.822;2024-01-06T06:23:02;7.80;;;2.40;;
20365;SDS011;10341;49.894;8.822;2024-01-06T06:28:21;6.00;;;2.67;;
20365;SDS011;10341;49.894;8.822;2024-01-06T06:33:40;6.40;;;2.60;;
20365;SDS011;10341;49.894;8.822;2024-01-06T06:39:00;4.93;;;2.28;;
20365;SDS011;10341;49.894;8.822;2024-01-06T06:44:19;5.22;;;2.33;;
20365;SDS011;10341;49.894;8.822;2024-01-06T06:49:39;4.30;;;2.45;;
20365;SDS011;10341;49.894;8.822;2024-01-06T06:54:58;7.53;;;3.17;;
20365;SDS011;10341;49.894;8.822;2024-01-06T07:00:18;5.20;;;2.70;;
20365;SDS011;10341;49.894;8.822;2024-01-06T07:05:38;8.70;;;2.70;;
20365;SDS011;10341;49.894;8.822;2024-01-06T07:10:58;5.70;;;2.70;;
20365;SDS011;10341;49.894;8.822;2024-01-06T07:16:17;4.97;;;2.65;;
20365;SDS011;10341;49.894;8.822;2024-01-06T07:21:37;6.32;;;2.90;;
20365;SDS011;10341;49.894;8.822;2024-01-06T07:26:57;4.03;;;2.75;;
20365;SDS011;10341;49.894;8.822;2024-01-06T07:32:16;6.82;;;2.53;;
20365;SDS011;10341;49.894;8.822;2024-01-06T07:37:35;9.38;;;3.20;;
20365;SDS011;10341;49.894;8.822;2024-01-06T07:42:54;6.25;;;2.85;;
20365;SDS011;10341;49.894;8.822;2024-01-06T07:48:14;5.95;;;2.75;;
20365;SDS011;10341;49.894;8.822;2024-01-06T07:53:34;4.38;;;2.65;;
20365;SDS011;10341;49.894;8.822;2024-01-06T07:58:53;5.03;;;2.63;;
20365;SDS011;10341;49.894;8.822;2024-01-06T08:04:12;5.73;;;2.37;;
20365;SDS011;10341;49.894;8.822;2024-01-06T08:09:31;6.10;;;3.35;;
20365;SDS011;10341;49.894;8.822;2024-01-06T08:14:51;7.82;;;3.90;;
20365;SDS011;10341;49.894;8.822;2024-01-06T08:20:11;6.82;;;3.53;;
20365;SDS011;10341;49.894;8.822;2024-01-06T08:25:30;5.75;;;3.83;;
20365;SDS011;10341;49.894;8.822;2024-01-06T08:30:50;4.32;;;3.15;;
20365;SDS011;10341;49.894;8.822;2024-01-06T08:36:09;8.73;;;4.25;;
20365;SDS011;10341;49.894;8.822;2024-01-06T08:41:29;6.30;;;3.45;;
20365;SDS011;10341;49.894;8.822;2024-01-06T08:46:48;6.38;;;4.10;;
20365;SDS011;10341;49.894;8.822;2024-01-06T08:52:08;4.35;;;2.53;;
20365;SDS011;10341;49.894;8.822;2024-01-06T08:57:27;10.63;;;3.47;;
20365;SDS011;10341;49.894;8.822;2024-01-06T09:02:47;4.78;;;3.13;;
20365;SDS011;10341;49.894;8.822;2024-01-06T09:08:07;9.77;;;3.75;;
20365;SDS011;10341;49.894;8.822;2024-01-06T09:13:28;4.10;;;2.95;;
20365;SDS011;10341;49.894;8.822;2024-01-06T09:18:48;5.15;;;3.15;;
20365;SDS011;10341;49.894;8.822;2024-01-06T09:24:08;6.18;;;3.22;;
20365;SDS011;10341;49.894;8.822;2024-01-06T09:29:27;6.47;;;2.83;;
20365;SDS011;10341;49.894;8.822;2024-01-06T09:34:47;5.47;;;2.72;;
20365;SDS011;10341;49.894;8.822;2024-01-06T09:40:07;6.47;;;3.43;;
20365;SDS011;10341;49.894;8.822;2024-01-06T09:45:30;4.90;;;3.20;;
20365;SDS011;10341;49.894;8.822;2024-01-06T09:50:49;7.82;;;3.58;;
20365;SDS011;10341;49.894;8.822;2024-01-06T09:56:15;7.07;;;3.85;;
20365;SDS011;10341;49.894;8.822;2024-01-06T10:01:36;6.80;;;4.25;;
20365;SDS011;10341;49.894;8.822;2024-01-06T10:06:55;6.37;;;3.70;;
20365;SDS011;10341;49.894;8.822;2024-01-06T10:12:14;6.82;;;4.25;;
20365;SDS011;10341;49.894;8.822;2024-01-06T10:17:40;9.15;;;4.50;;
20365;SDS011;10341;49.894;8.822;2024-01-06T10:23:04;5.80;;;3.95;;
20365;SDS011;10341;49.894;8.822;2024-01-06T10:28:24;7.38;;;4.10;;
20365;SDS011;10341;49.894;8.822;2024-01-06T10:33:44;9.25;;;4.20;;
20365;SDS011;10341;49.894;8.822;2024-01-06T10:39:03;7.40;;;3.78;;
20365;SDS011;10341;49.894;8.822;2024-01-06T10:44:26;6.40;;;3.75;;
20365;SDS011;10341;49.894;8.822;2024-01-06T10:49:46;7.93;;;4.20;;
20365;SDS011;10341;49.894;8.822;2024-01-06T10:55:07;4.97;;;3.50;;
20365;SDS011;10341;49.894;8.822;2024-01-06T11:05:47;6.30;;;3.90;;
20365;SDS011;10341;49.894;8.822;2024-01-06T11:11:07;6.65;;;3.78;;
20365;SDS011;10341;49.894;8.822;2024-01-06T11:16:37;7.22;;;4.50;;
20365;SDS011;10341;49.894;8.822;2024-01-06T11:21:56;7.53;;;3.85;;
20365;SDS011;10341;49.894;8.822;2024-01-06T11:27:36;7.43;;;3.83;;
20365;SDS011;10341;49.894;8.822;2024-01-06T11:32:56;6.13;;;3.83;;
20365;SDS011;10341;49.894;8.822;2024-01-06T11:38:17;6.55;;;3.70;;
20365;SDS011;10341;49.894;8.822;2024-01-06T11:43:37;4.85;;;3.08;;
20365;SDS011;10341;49.894;8.822;2024-01-06T11:49:00;8.00;;;4.05;;
20365;SDS011;10341;49.894;8.822;2024-01-06T11:54:23;9.40;;;4.07;;
20365;SDS011;10341;49.894;8.822;2024-01-06T11:59:42;7.10;;;3.75;;
20365;SDS011;10341;49.894;8.822;2024-01-06T12:05:02;7.43;;;3.30;;
20365;SDS011;10341;49.894;8.822;2024-01-06T12:10:21;5.05;;;3.38;;
20365;SDS011;10341;49.894;8.822;2024-01-06T12:21:00;7.30;;;3.08;;
20365;SDS011;10341;49.894;8.822;2024-01-06T12:26:20;3.72;;;2.85;;
20365;SDS011;10341;49.894;8.822;2024-01-06T12:31:40;7.38;;;4.10;;
20365;SDS011;10341;49.894;8.822;2024-01-06T12:36:59;6.47;;;3.58;;
20365;SDS011;10341;49.894;8.822;2024-01-06T12:42:20;6.43;;;3.47;;
20365;SDS011;10341;49.894;8.822;2024-01-06T12:47:42;8.23;;;4.22;;
20365;SDS011;10341;49.894;8.822;2024-01-06T12:53:02;11.00;;;4.95;;
20365;SDS011;10341;49.894;8.822;2024-01-06T12:58:21;6.05;;;3.70;;
20365;SDS011;10341;49.894;8.822;2024-01-06T13:03:42;11.52;;;5.82;;
20365;SDS011;10341;49.894;8.822;2024-01-06T13:09:01;7.10;;;4.55;;
20365;SDS011;10341;49.894;8.822;2024-01-06T13:14:25;8.45;;;4.28;;
20365;SDS011;10341;49.894;8.822;2024-01-06T13:19:45;7.65;;;3.80;;
20365;SDS011;10341;49.894;8.822;2024-01-06T13:25:04;5.63;;;3.50;;
20365;SDS011;10341;49.894;8.822;2024-01-06T13:30:26;7.22;;;3.22;;
20365;SDS011;10341;49.894;8.822;2024-01-06T13:35:46;6.68;;;3.72;;
20365;SDS011;10341;49.894;8.822;2024-01-06T13:41:05;6.80;;;3.92;;
20365;SDS011;10341;49.894;8.822;2024-01-06T13:46:26;7.25;;;3.97;;
20365;SDS011;10341;49.894;8.822;2024-01-06T13:51:45;6.03;;;3.78;;
20365;SDS011;10341;49.894;8.822;2024-01-06T13:57:05;4.75;;;3.22;;
20365;SDS011;10341;49.894;8.822;2024-01-06T14:02:25;4.22;;;2.92;;
20365;SDS011;10341;49.894;8.822;2024-01-06T14:07:44;5.95;;;3.00;;
20365;SDS011;10341;49.894;8.822;2024-01-06T14:13:05;5.57;;;3.40;;
20365;SDS011;10341;49.894;8.822;2024-01-06T14:18:26;4.03;;;3.05;;
20365;SDS011;10341;49.894;8.822;2024-01-06T14:23:46;6.25;;;3.17;;
20365;SDS011;10341;49.894;8.822;2024-01-06T14:29:08;5.22;;;3.95;;
20365;SDS011;10341;49.894;8.822;2024-01-06T14:34:27;5.78;;;3.70;;
20365;SDS011;10341;49.894;8.822;2024-01-06T14:39:47;5.90;;;3.38;;
20365;SDS011;10341;49.894;8.822;2024-01-06T14:45:07;8.02;;;3.60;;
20365;SDS011;10341;49.894;8.822;2024-01-06T14:50:27;5.97;;;3.05;;
20365;SDS011;10341;49.894;8.822;2024-01-06T14:55:47;6.22;;;3.90;;
20365;SDS011;10341;49.894;8.822;2024-01-06T15:01:06;5.13;;;3.13;;
20365;SDS011;10341;49.894;8.822;2024-01-06T15:06:26;6.15;;;3.97;;
20365;SDS011;10341;49.894;8.822;2024-01-06T15:11:46;5.63;;;3.33;;
20365;SDS011;10341;49.894;8.822;2024-01-06T15:17:06;5.45;;;3.50;;
20365;SDS011;10341;49.894;8.822;2024-01-06T15:22:25;6.53;;;4.47;;
20365;SDS011;10341;49.894;8.822;2024-01-06T15:27:46;7.22;;;4.57;;
20365;SDS011;10341;49.894;8.822;2024-01-06T15:38:25;5.57;;;3.70;;
20365;SDS011;10341;49.894;8.822;2024-01-06T15:43:46;7.18;;;4.50;;
20365;SDS011;10341;49.894;8.822;2024-01-06T15:54:25;7.28;;;4.63;;
20365;SDS011;10341;49.894;8.822;2024-01-06T15:59:46;8.93;;;4.50;;
20365;SDS011;10341;49.894;8.822;2024-01-06T16:05:06;10.45;;;5.55;;
20365;SDS011;10341;49.894;8.822;2024-01-06T16:10:27;8.77;;;5.20;;
20365;SDS011;10341;49.894;8.822;2024-01-06T16:15:47;9.10;;;4.95;;
20365;SDS011;10341;49.894;8.822;2024-01-06T16:21:06;10.13;;;5.35;;
20365;SDS011;10341;49.894;8.822;2024-01-06T16:26:26;13.27;;;6.35;;
20365;SDS011;10341;49.894;8.822;2024-01-06T16:31:45;8.93;;;5.40;;
20365;SDS011;10341;49.894;8.822;2024-01-06T16:37:05;10.35;;;5.05;;
20365;SDS011;10341;49.894;8.822;2024-01-06T16:42:24;11.77;;;5.65;;
20365;SDS011;10341;49.894;8.822;2024-01-06T16:47:44;7.53;;;4.50;;
20365;SDS011;10341;49.894;8.822;2024-01-06T16:53:04;7.85;;;4.72;;
20365;SDS011;10341;49.894;8.822;2024-01-06T16:58:24;8.98;;;5.40;;
20365;SDS011;10341;49.894;8.822;2024-01-06T17:03:43;13.13;;;5.93;;
20365;SDS011;10341;49.894;8.822;2024-01-06T17:09:02;9.43;;;5.47;;
20365;SDS011;10341;49.894;8.822;2024-01-06T17:19:41;8.98;;;4.97;;
20365;SDS011;10341;49.894;8.822;2024-01-06T17:25:01;8.98;;;4.80;;
20365;SDS011;10341;49.894;8.822;2024-01-06T17:30:21;7.53;;;4.50;;
20365;SDS011;10341;49.894;8.822;2024-01-06T17:35:40;9.63;;;5.05;;
20365;SDS011;10341;49.894;8.822;2024-01-06T17:40:59;8.52;;;4.55;;
20365;SDS011;10341;49.894;8.822;2024-01-06T17:46:19;7.78;;;4.55;;
20365;SDS011;10341;49.894;8.822;2024-01-06T17:51:40;7.55;;;4.93;;
20365;SDS011;10341;49.894;8.822;2024-01-06T17:57:00;7.75;;;4.50;;
20365;SDS011;10341;49.894;8.822;2024-01-06T18:02:19;7.47;;;4.20;;
20365;SDS011;10341;49.894;8.822;2024-01-06T18:07:39;9.25;;;4.72;;
20365;SDS011;10341;49.894;8.822;2024-01-06T18:12:59;10.18;;;5.07;;
20365;SDS011;10341;49.894;8.822;2024-01-06T18:18:18;9.95;;;5.53;;
20365;SDS011;10341;49.894;8.822;2024-01-06T18:23:38;7.47;;;4.50;;
20365;SDS011;10341;49.894;8.822;2024-01-06T18:28:58;6.60;;;4.20;;
20365;SDS011;10341;49.894;8.822;2024-01-06T18:39:37;6.70;;;3.88;;
20365;SDS011;10341;49.894;8.822;2024-01-06T18:44:56;5.93;;;3.53;;
20365;SDS011;10341;49.894;8.822;2024-01-06T18:50:16;6.75;;;4.00;;
20365;SDS011;10341;49.894;8.822;2024-01-06T18:55:38;8.27;;;4.70;;
20365;SDS011;10341;49.894;8.822;2024-01-06T19:00:57;6.72;;;4.00;;
20365;SDS011;10341;49.894;8.822;2024-01-06T19:06:19;9.75;;;5.93;;
20365;SDS011;10341;49.894;8.822;2024-01-06T19:11:42;7.68;;;4.70;;
20365;SDS011;10341;49.894;8.822;2024-01-06T19:17:02;7.57;;;4.68;;
20365;SDS011;10341;49.894;8.822;2024-01-06T19:27:44;7.82;;;4.32;;
20365;SDS011;10341;49.894;8.822;2024-01-06T19:33:03;8.80;;;5.20;;
20365;SDS011;10341;49.894;8.822;2024-01-06T19:38:24;9.43;;;4.38;;
20365;SDS011;10341;49.894;8.822;2024-01-06T19:43:43;7.88;;;4.20;;
20365;SDS011;10341;49.894;8.822;2024-01-06T19:49:03;9.23;;;5.65;;
20365;SDS011;10341;49.894;8.822;2024-01-06T19:54:23;8.88;;;5.13;;
20365;SDS011;10341;49.894;8.822;2024-01-06T19:59:42;9.10;;;5.00;;
20365;SDS011;10341;49.894;8.822;2024-01-06T20:05:02;11.60;;;6.15;;
20365;SDS011;10341;49.894;8.822;2024-01-06T20:10:25;10.55;;;5.47;;
20365;SDS011;10341;49.894;8.822;2024-01-06T20:15:45;7.90;;;4.57;;
20365;SDS011;10341;49.894;8.822;2024-01-06T20:21:04;8.60;;;4.80;;
20365;SDS011;10341;49.894;8.822;2024-01-06T20:26:24;8.32;;;5.25;;
20365;SDS011;10341;49.894;8.822;2024-01-06T20:31:45;9.20;;;5.10;;
20365;SDS011;10341;49.894;8.822;2024-01-06T20:37:04;11.27;;;5.18;;
20365;SDS011;10341;49.894;8.822;2024-01-06T20:42:24;9.73;;;5.43;;
20365;SDS011;10341;49.894;8.822;2024-01-06T20:47:43;10.55;;;5.60;;
20365;SDS011;10341;49.894;8.822;2024-01-06T20:53:04;9.48;;;5.22;;
20365;SDS011;10341;49.894;8.822;2024-01-06T20:58:24;9.75;;;5.00;;
20365;SDS011;10341;49.894;8.822;2024-01-06T21:03:43;10.05;;;5.57;;
20365;SDS011;10341;49.894;8.822;2024-01-06T21:09:03;8.73;;;4.78;;
20365;SDS011;10341;49.894;8.822;2024-01-06T21:14:22;9.73;;;5.25;;
20365;SDS011;10341;49.894;8.822;2024-01-06T21:19:41;8.57;;;5.23;;
20365;SDS011;10341;49.894;8.822;2024-01-06T21:25:01;6.55;;;4.25;;
20365;SDS011;10341;49.894;8.822;2024-01-06T21:30:23;10.20;;;5.20;;
20365;SDS011;10341;49.894;8.822;2024-01-06T21:35:42;10.05;;;5.22;;
20365;SDS011;10341;49.894;8.822;2024-01-06T21:41:02;10.13;;;5.38;;
20365;SDS011;10341;49.894;8.822;2024-01-06T21:46:22;9.07;;;4.88;;
20365;SDS011;10341;49.894;8.822;2024-01-06T21:51:51;9.23;;;5.18;;
20365;SDS011;10341;49.894;8.822;2024-01-06T21:57:14;10.38;;;5.50;;
20365;SDS011;10341;49.894;8.822;2024-01-06T22:07:53;9.80;;;5.30;;
20365;SDS011;10341;49.894;8.822;2024-01-06T22:13:13;8.60;;;4.70;;
20365;SDS011;10341;49.894;8.822;2024-01-06T22:18:33;9.88;;;5.30;;
20365;SDS011;10341;49.894;8.822;2024-01-06T22:23:53;9.50;;;5.75;;
20365;SDS011;10341;49.894;8.822;2024-01-06T22:29:15;8.82;;;4.63;;
20365;SDS011;10341;49.894;8.822;2024-01-06T22:34:34;8.02;;;3.92;;
20365;SDS011;10341;49.894;8.822;2024-01-06T22:39:53;8.40;;;3.53;;
20365;SDS011;10341;49.894;8.822;2024-01-06T22:45:13;5.47;;;3.00;;
20365;SDS011;10341;49.894;8.822;2024-01-06T22:50:33;5.93;;;3.05;;
20365;SDS011;10341;49.894;8.822;2024-01-06T22:55:54;7.30;;;3.60;;
20365;SDS011;10341;49.894;8.822;2024-01-06T23:01:16;7.55;;;3.33;;
20365;SDS011;10341;49.894;8.822;2024-01-06T23:06:36;5.75;;;3.40;;
20365;SDS011;10341;49.894;8.822;2024-01-06T23:11:55;6.40;;;3.35;;
20365;SDS011;10341;49.894;8.822;2024-01-06T23:17:15;5.47;;;3.42;;
20365;SDS011;10341;49.894;8.822;2024-01-06T23:22:35;7.68;;;4.70;;
20365;SDS011;10341;49.894;8.822;2024-01-06T23:27:54;9.10;;;4.30;;
20365;SDS011;10341;49.894;8.822;2024-01-06T23:38:33;6.72;;;3.80;;
20365;SDS011;10341;49.894;8.822;2024-01-06T23:43:52;7.20;;;4.07;;
20365;SDS011;10341;49.894;8.822;2024-01-06T23:54:31;6.97;;;4.18;;
20365;SDS011;10341;49.894;8.822;2024-01-06T23:59:51;8.18;;;3.95;;
